createdAt,value
2023-04-02T00:00:29.762Z,0.46
2023-04-02T00:03:03.684Z,0.50
2023-04-02T00:05:51.372Z,0.49
2023-04-02T00:08:25.823Z,0.47
2023-04-02T00:10:57.453Z,0.44
2023-04-02T00:13:30.097Z,0.44
2023-04-02T00:15:58.205Z,0.41
2023-04-02T00:18:26.166Z,0.37
2023-04-02T00:21:21.136Z,0.38
2023-04-02T00:23:47.879Z,0.38
2023-04-02T00:26:29.541Z,0.38
2023-04-02T00:28:56.179Z,0.37
2023-04-02T00:31:23.611Z,0.37
2023-04-02T00:33:50.896Z,0.36
2023-04-02T00:36:20.189Z,0.35
2023-04-02T00:38:48.823Z,0.34
2023-04-02T00:41:27.026Z,0.34
2023-04-02T00:43:54.599Z,0.31
2023-04-02T00:46:27.506Z,0.31
2023-04-02T00:48:59.780Z,0.30
2023-04-02T00:51:38.526Z,0.30
2023-04-02T00:54:09.906Z,0.31
2023-04-02T00:56:44.519Z,0.30
2023-04-02T00:59:33.546Z,0.29
2023-04-02T01:02:31.057Z,0.28
2023-04-02T01:05:04.421Z,0.31
2023-04-02T01:07:51.166Z,0.32
2023-04-02T01:10:42.849Z,0.33
2023-04-02T01:13:39.500Z,0.34
2023-04-02T01:16:33.069Z,0.36
2023-04-02T01:19:32.008Z,0.37
2023-04-02T01:22:36.173Z,0.37
2023-04-02T01:25:06.390Z,0.36
2023-04-02T01:27:42.259Z,0.34
2023-04-02T01:30:11.880Z,0.35
2023-04-02T01:32:40.964Z,0.36
2023-04-02T01:35:09.124Z,0.36
2023-04-02T01:38:11.782Z,0.34
2023-04-02T01:40:46.512Z,0.34
2023-04-02T01:43:29.960Z,0.34
2023-04-02T01:46:04.913Z,0.37
2023-04-02T01:48:31.983Z,0.35
2023-04-02T01:51:00.828Z,0.37
2023-04-02T01:53:30.812Z,0.37
2023-04-02T01:56:00.610Z,0.38
2023-04-02T01:58:32.500Z,0.37
2023-04-02T02:01:09.291Z,0.38
2023-04-02T02:03:44.218Z,0.37
2023-04-02T02:06:14.129Z,0.37
2023-04-02T02:08:49.953Z,0.37
2023-04-02T02:11:21.460Z,0.37
2023-04-02T02:13:55.421Z,0.36
2023-04-02T02:16:22.987Z,0.34
2023-04-02T02:18:52.777Z,0.33
2023-04-02T02:21:47.964Z,0.32
2023-04-02T02:24:20.747Z,0.31
2023-04-02T02:26:50.397Z,0.32
2023-04-02T02:29:20.277Z,0.31
2023-04-02T02:31:52.437Z,0.29
2023-04-02T02:34:24.781Z,0.28
2023-04-02T02:36:56.778Z,0.27
2023-04-02T02:39:43.605Z,0.26
2023-04-02T02:42:14.416Z,0.25
2023-04-02T02:44:46.787Z,0.25
2023-04-02T02:47:22.842Z,0.24
2023-04-02T02:49:54.101Z,0.25
2023-04-02T02:52:25.625Z,0.25
2023-04-02T02:54:57.244Z,0.25
2023-04-02T02:57:31.521Z,0.24
2023-04-02T03:00:01.469Z,0.28
2023-04-02T03:02:29.154Z,0.29
2023-04-02T03:04:56.428Z,0.26
2023-04-02T03:07:27.240Z,0.28
2023-04-02T03:10:12.482Z,0.29
2023-04-02T03:13:02.223Z,0.28
2023-04-02T03:15:35.593Z,0.26
2023-04-02T03:18:08.421Z,0.24
2023-04-02T03:20:41.137Z,0.25
2023-04-02T03:23:29.790Z,0.27
2023-04-02T03:26:06.015Z,0.25
2023-04-02T03:28:37.775Z,0.27
2023-04-02T03:31:16.741Z,0.27
2023-04-02T03:33:48.617Z,0.26
2023-04-02T03:36:30.372Z,0.29
2023-04-02T03:39:10.170Z,0.31
2023-04-02T03:41:52.558Z,0.34
2023-04-02T03:44:37.525Z,0.35
2023-04-02T03:47:18.079Z,0.35
2023-04-02T03:49:57.628Z,0.34
2023-04-02T03:52:29.235Z,0.34
2023-04-02T03:54:59.159Z,0.35
2023-04-02T03:57:38.187Z,0.36
2023-04-02T04:00:16.346Z,0.35
2023-04-02T04:02:47.462Z,0.32
2023-04-02T04:05:28.718Z,0.34
2023-04-02T04:08:01.361Z,0.35
2023-04-02T04:10:29.166Z,0.37
2023-04-02T04:13:03.736Z,0.38
2023-04-02T04:15:40.458Z,0.41
2023-04-02T04:18:19.944Z,0.45
2023-04-02T04:21:01.084Z,0.44
2023-04-02T04:23:35.728Z,0.46
2023-04-02T04:26:19.706Z,0.47
2023-04-02T04:29:14.779Z,0.50
2023-04-02T04:31:55.652Z,0.50
2023-04-02T04:34:32.156Z,0.54
2023-04-02T04:37:01.750Z,0.55
2023-04-02T04:39:45.881Z,0.56
2023-04-02T04:42:22.786Z,0.55
2023-04-02T04:44:58.695Z,0.58
2023-04-02T04:47:38.835Z,0.58
2023-04-02T04:50:30.679Z,0.64
2023-04-02T04:52:57.168Z,0.65
2023-04-02T04:55:39.826Z,0.67
2023-04-02T04:58:19.270Z,0.69
2023-04-02T05:01:12.222Z,0.71
2023-04-02T05:04:05.301Z,0.71
2023-04-02T05:06:53.349Z,0.72
2023-04-02T05:09:27.488Z,0.72
2023-04-02T05:12:31.689Z,0.74
2023-04-02T05:15:08.437Z,0.76
2023-04-02T05:17:42.334Z,0.78
2023-04-02T05:20:21.264Z,0.79
2023-04-02T05:22:58.465Z,0.77
2023-04-02T05:25:27.364Z,0.76
2023-04-02T05:28:06.142Z,0.83
2023-04-02T05:30:41.340Z,0.84
2023-04-02T05:33:21.135Z,0.85
2023-04-02T05:35:53.334Z,0.89
2023-04-02T05:38:22.745Z,0.90
2023-04-02T05:40:58.467Z,0.90
2023-04-02T05:43:27.765Z,0.91
2023-04-02T05:45:59.282Z,0.94
2023-04-02T05:48:39.642Z,0.98
2023-04-02T05:51:14.197Z,0.99
2023-04-02T05:53:47.081Z,1.03
2023-04-02T05:56:28.751Z,1.07
2023-04-02T05:59:08.324Z,1.09
2023-04-02T06:01:47.184Z,1.13
2023-04-02T06:04:29.863Z,1.16
2023-04-02T06:07:07.983Z,1.18
2023-04-02T06:09:50.930Z,1.19
2023-04-02T06:12:36.324Z,1.24
2023-04-02T06:15:03.004Z,1.27
2023-04-02T06:17:29.779Z,1.29
2023-04-02T06:19:58.926Z,1.33
2023-04-02T06:22:45.424Z,1.34
2023-04-02T06:25:22.755Z,1.40
2023-04-02T06:27:52.475Z,1.40
2023-04-02T06:30:25.409Z,1.49
2023-04-02T06:32:51.934Z,1.54
2023-04-02T06:35:18.443Z,1.57
2023-04-02T06:37:48.888Z,1.71
2023-04-02T06:40:39.887Z,1.80
2023-04-02T06:43:16.346Z,1.87
2023-04-02T06:45:46.288Z,1.95
2023-04-02T06:48:19.122Z,2.01
2023-04-02T06:50:58.585Z,2.05
2023-04-02T06:53:34.091Z,2.07
2023-04-02T06:56:28.724Z,2.12
2023-04-02T06:58:55.304Z,2.16
2023-04-02T07:01:26.604Z,2.25
2023-04-02T07:03:53.067Z,2.30
2023-04-02T07:06:21.247Z,2.41
2023-04-02T07:08:48.079Z,2.52
2023-04-02T07:11:21.113Z,2.64
2023-04-02T07:13:49.067Z,2.73
2023-04-02T07:16:18.504Z,2.75
2023-04-02T07:18:45.487Z,2.75
2023-04-02T07:21:11.962Z,2.81
2023-04-02T07:23:38.414Z,2.88
2023-04-02T07:26:06.621Z,2.91
2023-04-02T07:28:33.398Z,2.95
2023-04-02T07:31:00.195Z,3.00
2023-04-02T07:33:30.558Z,3.01
2023-04-02T07:35:58.025Z,2.98
2023-04-02T07:38:24.858Z,2.95
2023-04-02T07:40:51.611Z,2.92
2023-04-02T07:43:18.229Z,2.90
2023-04-02T07:45:44.770Z,2.87
2023-04-02T07:48:13.820Z,2.89
2023-04-02T07:50:40.845Z,3.00
2023-04-02T07:53:08.763Z,3.12
2023-04-02T07:55:35.718Z,3.24
2023-04-02T07:58:02.986Z,3.34
2023-04-02T08:00:30.006Z,3.39
2023-04-02T08:02:56.941Z,3.46
2023-04-02T08:05:23.982Z,3.45
2023-04-02T08:07:55.393Z,3.35
2023-04-02T08:10:22.647Z,3.32
2023-04-02T08:12:49.724Z,3.25
2023-04-02T08:15:16.904Z,3.22
2023-04-02T08:17:44.067Z,3.22
2023-04-02T08:20:22.450Z,3.26
2023-04-02T08:22:49.759Z,3.29
2023-04-02T08:25:16.654Z,3.31
2023-04-02T08:27:43.343Z,3.33
2023-04-02T08:30:12.762Z,3.40
2023-04-02T08:32:42.472Z,3.47
2023-04-02T08:35:11.112Z,3.57
2023-04-02T08:37:37.992Z,3.69
2023-04-02T08:40:07.190Z,3.79
2023-04-02T08:42:50.231Z,3.85
2023-04-02T08:45:32.304Z,3.81
2023-04-02T08:48:01.182Z,3.77
2023-04-02T08:50:37.182Z,3.86
2023-04-02T08:53:09.642Z,4.04
2023-04-02T08:55:42.791Z,4.27
2023-04-02T08:58:39.366Z,4.53
2023-04-02T09:01:10.775Z,4.76
2023-04-02T09:03:41.452Z,4.87
2023-04-02T09:06:13.792Z,5.04
2023-04-02T09:08:44.746Z,5.12
2023-04-02T09:11:21.553Z,5.07
2023-04-02T09:13:54.095Z,4.93
2023-04-02T09:16:33.852Z,4.85
2023-04-02T09:19:00.884Z,4.87
2023-04-02T09:21:35.134Z,4.92
2023-04-02T09:24:03.377Z,5.00
2023-04-02T09:26:33.326Z,5.13
2023-04-02T09:29:19.907Z,5.21
2023-04-02T09:31:55.220Z,5.19
2023-04-02T09:34:30.004Z,5.12
2023-04-02T09:36:57.171Z,5.04
2023-04-02T09:39:28.412Z,5.00
2023-04-02T09:42:04.951Z,4.92
2023-04-02T09:44:32.777Z,4.84
2023-04-02T09:47:05.530Z,4.97
2023-04-02T09:49:37.831Z,5.06
2023-04-02T09:52:26.780Z,4.98
2023-04-02T09:55:21.814Z,4.94
2023-04-02T09:57:50.424Z,4.90
2023-04-02T10:00:31.971Z,4.97
2023-04-02T10:03:23.044Z,5.24
2023-04-02T10:06:14.010Z,5.63
2023-04-02T10:08:43.543Z,5.92
2023-04-02T10:11:14.751Z,5.98
2023-04-02T10:14:02.552Z,6.08
2023-04-02T10:16:35.021Z,6.21
2023-04-02T10:19:13.251Z,6.36
2023-04-02T10:21:43.499Z,6.51
2023-04-02T10:24:12.598Z,6.67
2023-04-02T10:27:31.697Z,6.69
2023-04-02T10:30:30.521Z,6.39
2023-04-02T10:33:20.041Z,6.33
2023-04-02T10:36:12.152Z,6.36
2023-04-02T10:38:44.052Z,6.39
2023-04-02T10:41:38.010Z,6.55
2023-04-02T10:44:24.052Z,6.61
2023-04-02T10:47:09.173Z,6.72
2023-04-02T10:49:47.599Z,6.73
2023-04-02T10:52:37.133Z,6.69
2023-04-02T10:55:22.101Z,6.78
2023-04-02T10:57:51.171Z,7.14
2023-04-02T11:00:25.100Z,7.33
2023-04-02T11:03:14.709Z,7.58
2023-04-02T11:05:45.893Z,7.73
2023-04-02T11:08:38.046Z,7.81
2023-04-02T11:11:14.346Z,7.60
2023-04-02T11:13:52.298Z,7.52
2023-04-02T11:16:19.870Z,7.54
2023-04-02T11:19:15.427Z,7.48
2023-04-02T11:21:57.213Z,7.23
2023-04-02T11:24:32.702Z,7.10
2023-04-02T11:27:15.357Z,6.99
2023-04-02T11:29:53.828Z,7.06
2023-04-02T11:32:20.990Z,7.14
2023-04-02T11:34:56.268Z,7.27
2023-04-02T11:37:44.748Z,7.31
2023-04-02T11:40:11.666Z,7.34
2023-04-02T11:42:40.407Z,7.26
2023-04-02T11:45:28.708Z,7.17
2023-04-02T11:48:01.353Z,7.15
2023-04-02T11:50:40.407Z,7.10
2023-04-02T11:53:10.217Z,7.15
2023-04-02T11:55:47.390Z,7.28
2023-04-02T11:58:35.444Z,7.24
2023-04-02T12:01:21.310Z,7.24
2023-04-02T12:04:35.774Z,7.43
2023-04-02T12:07:26.522Z,7.74
2023-04-02T12:09:56.082Z,7.86
2023-04-02T12:12:37.461Z,7.97
2023-04-02T12:15:32.512Z,8.03
2023-04-02T12:18:22.721Z,8.05
2023-04-02T12:20:56.191Z,8.10
2023-04-02T12:23:31.841Z,8.09
2023-04-02T12:26:03.359Z,8.20
2023-04-02T12:28:31.239Z,8.30
2023-04-02T12:31:09.950Z,8.49
2023-04-02T12:33:38.546Z,8.70
2023-04-02T12:36:27.374Z,8.81
2023-04-02T12:38:56.946Z,8.86
2023-04-02T12:41:30.058Z,8.88
2023-04-02T12:43:58.235Z,8.78
2023-04-02T12:46:25.998Z,8.73
2023-04-02T12:49:06.605Z,8.46
2023-04-02T12:51:36.221Z,8.39
2023-04-02T12:54:03.198Z,8.37
2023-04-02T12:56:30.224Z,8.38
2023-04-02T12:58:58.726Z,8.35
2023-04-02T13:01:29.807Z,8.31
2023-04-02T13:04:12.183Z,8.24
2023-04-02T13:06:46.632Z,8.10
2023-04-02T13:09:40.039Z,7.93
2023-04-02T13:12:32.500Z,7.91
2023-04-02T13:15:02.456Z,7.93
2023-04-02T13:18:03.965Z,7.78
2023-04-02T13:20:41.688Z,7.56
2023-04-02T13:23:27.331Z,7.49
2023-04-02T13:25:55.799Z,7.40
2023-04-02T13:28:22.652Z,7.46
2023-04-02T13:30:49.606Z,7.51
2023-04-02T13:33:17.231Z,7.60
2023-04-02T13:35:44.392Z,7.70
2023-04-02T13:38:11.435Z,7.68
2023-04-02T13:40:38.547Z,7.70
2023-04-02T13:43:06.570Z,7.69
2023-04-02T13:45:37.367Z,7.50
2023-04-02T13:48:05.711Z,7.49
2023-04-02T13:50:35.039Z,7.56
2023-04-02T13:53:10.236Z,7.63
2023-04-02T13:55:41.416Z,7.67
2023-04-02T13:58:09.779Z,7.64
2023-04-02T14:00:37.847Z,7.52
2023-04-02T14:03:11.344Z,7.52
2023-04-02T14:05:59.797Z,7.53
2023-04-02T14:08:45.208Z,7.55
2023-04-02T14:11:46.112Z,7.48
2023-04-02T14:14:34.036Z,7.41
2023-04-02T14:17:09.512Z,7.31
2023-04-02T14:19:53.198Z,7.23
2023-04-02T14:22:28.741Z,7.28
2023-04-02T14:25:10.638Z,7.30
2023-04-02T14:27:48.465Z,7.27
2023-04-02T14:30:23.334Z,7.24
2023-04-02T14:33:05.397Z,7.29
2023-04-02T14:35:37.575Z,7.33
2023-04-02T14:38:17.397Z,7.24
2023-04-02T14:40:52.060Z,7.10
2023-04-02T14:43:31.306Z,7.02
2023-04-02T14:46:05.979Z,7.00
2023-04-02T14:48:37.159Z,7.06
2023-04-02T14:51:30.141Z,7.14
2023-04-02T14:54:04.133Z,7.22
2023-04-02T14:56:36.385Z,7.25
2023-04-02T14:59:27.957Z,7.19
2023-04-02T15:02:01.432Z,7.04
2023-04-02T15:04:34.705Z,6.89
2023-04-02T15:07:07.608Z,6.81
2023-04-02T15:09:41.885Z,6.81
2023-04-02T15:12:24.728Z,6.87
2023-04-02T15:14:58.967Z,6.91
2023-04-02T15:17:25.628Z,6.89
2023-04-02T15:20:13.614Z,6.81
2023-04-02T15:22:58.872Z,6.75
2023-04-02T15:25:47.964Z,6.68
2023-04-02T15:28:30.192Z,6.63
2023-04-02T15:31:00.665Z,6.67
2023-04-02T15:33:27.304Z,6.76
2023-04-02T15:36:23.486Z,6.79
2023-04-02T15:39:00.950Z,6.78
2023-04-02T15:41:36.010Z,6.73
2023-04-02T15:44:16.904Z,6.69
2023-04-02T15:47:14.996Z,6.66
2023-04-02T15:50:07.063Z,6.66
2023-04-02T15:52:45.707Z,6.69
2023-04-02T15:55:45.971Z,6.66
2023-04-02T15:58:20.596Z,6.57
2023-04-02T16:01:06.010Z,6.44
2023-04-02T16:03:59.662Z,6.31
2023-04-02T16:06:27.836Z,6.27
2023-04-02T16:09:17.739Z,6.33
2023-04-02T16:11:44.168Z,6.40
2023-04-02T16:14:24.483Z,6.46
2023-04-02T16:16:54.484Z,6.52
2023-04-02T16:19:30.415Z,6.39
2023-04-02T16:21:57.280Z,6.29
2023-04-02T16:24:24.324Z,6.14
2023-04-02T16:26:59.548Z,6.03
2023-04-02T16:29:51.156Z,5.93
2023-04-02T16:32:46.114Z,5.86
2023-04-02T16:35:50.749Z,5.77
2023-04-02T16:38:23.732Z,5.78
2023-04-02T16:41:17.640Z,5.74
2023-04-02T16:43:53.004Z,5.75
2023-04-02T16:46:40.841Z,5.68
2023-04-02T16:49:36.414Z,5.71
2023-04-02T16:52:26.485Z,5.71
2023-04-02T16:55:10.106Z,5.67
2023-04-02T16:57:44.631Z,5.62
2023-04-02T17:00:27.721Z,5.58
2023-04-02T17:03:13.624Z,5.52
2023-04-02T17:05:48.654Z,5.49
2023-04-02T17:08:22.807Z,5.47
2023-04-02T17:11:00.499Z,5.42
2023-04-02T17:13:38.987Z,5.34
2023-04-02T17:16:11.642Z,5.29
2023-04-02T17:18:41.607Z,5.23
2023-04-02T17:21:13.722Z,5.19
2023-04-02T17:23:55.719Z,5.15
2023-04-02T17:26:27.830Z,5.12
2023-04-02T17:28:57.558Z,5.08
2023-04-02T17:31:33.851Z,5.06
2023-04-02T17:34:10.598Z,5.03
2023-04-02T17:36:43.917Z,4.97
2023-04-02T17:39:35.486Z,4.91
2023-04-02T17:42:14.201Z,4.82
2023-04-02T17:44:58.588Z,4.71
2023-04-02T17:47:40.335Z,4.73
2023-04-02T17:50:28.698Z,4.70
2023-04-02T17:52:58.636Z,4.64
2023-04-02T17:55:40.385Z,4.62
2023-04-02T17:58:15.617Z,4.57
2023-04-02T18:01:14.462Z,4.53
2023-04-02T18:03:52.441Z,4.48
2023-04-02T18:06:23.463Z,4.44
2023-04-02T18:09:19.328Z,4.39
2023-04-02T18:12:07.719Z,4.33
2023-04-02T18:15:03.184Z,4.29
2023-04-02T18:17:33.391Z,4.24
2023-04-02T18:20:29.334Z,4.18
2023-04-02T18:23:16.910Z,4.12
2023-04-02T18:25:54.003Z,4.07
2023-04-02T18:28:20.458Z,4.03
2023-04-02T18:30:49.574Z,3.98
2023-04-02T18:33:29.633Z,3.93
2023-04-02T18:36:18.835Z,3.88
2023-04-02T18:39:05.826Z,3.84
2023-04-02T18:42:04.492Z,3.78
2023-04-02T18:45:03.905Z,3.73
2023-04-02T18:47:39.615Z,3.69
2023-04-02T18:50:20.684Z,3.62
2023-04-02T18:52:48.344Z,3.57
2023-04-02T18:55:20.799Z,3.52
2023-04-02T18:57:51.362Z,3.44
2023-04-02T19:00:29.506Z,3.42
2023-04-02T19:03:02.889Z,3.39
2023-04-02T19:05:35.912Z,3.37
2023-04-02T19:08:11.119Z,3.33
2023-04-02T19:10:39.384Z,3.29
2023-04-02T19:13:15.472Z,3.25
2023-04-02T19:15:41.871Z,3.18
2023-04-02T19:18:23.351Z,3.12
2023-04-02T19:21:00.243Z,3.07
2023-04-02T19:23:37.464Z,3.06
2023-04-02T19:26:08.887Z,3.02
2023-04-02T19:29:00.530Z,2.99
2023-04-02T19:31:41.230Z,2.95
2023-04-02T19:34:25.334Z,2.91
2023-04-02T19:37:02.645Z,2.89
2023-04-02T19:39:46.448Z,2.86
2023-04-02T19:42:47.389Z,2.82
2023-04-02T19:45:49.304Z,2.79
2023-04-02T19:48:20.224Z,2.73
2023-04-02T19:50:47.803Z,2.69
2023-04-02T19:53:14.946Z,2.64
2023-04-02T19:55:42.580Z,2.58
2023-04-02T19:58:29.607Z,2.54
2023-04-02T20:00:57.249Z,2.50
2023-04-02T20:03:24.432Z,2.42
2023-04-02T20:05:52.231Z,2.42
2023-04-02T20:08:19.129Z,2.37
2023-04-02T20:10:46.287Z,2.35
2023-04-02T20:13:13.440Z,2.32
2023-04-02T20:15:40.965Z,2.30
2023-04-02T20:18:10.263Z,2.25
2023-04-02T20:20:38.120Z,2.24
2023-04-02T20:23:05.164Z,2.21
2023-04-02T20:25:31.899Z,2.19
2023-04-02T20:27:58.356Z,2.16
2023-04-02T20:30:24.817Z,2.09
2023-04-02T20:32:51.458Z,2.08
2023-04-02T20:35:17.990Z,2.04
2023-04-02T20:37:45.622Z,2.02
2023-04-02T20:40:12.124Z,2.00
2023-04-02T20:42:38.576Z,1.97
2023-04-02T20:45:06.195Z,1.93
2023-04-02T20:47:32.706Z,1.89
2023-04-02T20:49:59.248Z,1.84
2023-04-02T20:52:27.805Z,1.81
2023-04-02T20:54:54.288Z,1.79
2023-04-02T20:57:21.989Z,1.77
2023-04-02T20:59:48.687Z,1.74
2023-04-02T21:02:15.399Z,1.72
2023-04-02T21:04:41.880Z,1.71
2023-04-02T21:07:08.351Z,1.66
2023-04-02T21:09:34.804Z,1.65
2023-04-02T21:12:01.292Z,1.62
2023-04-02T21:14:27.740Z,1.58
2023-04-02T21:16:54.231Z,1.57
2023-04-02T21:19:20.681Z,1.55
2023-04-02T21:21:47.119Z,1.52
2023-04-02T21:24:14.076Z,1.47
2023-04-02T21:26:41.422Z,1.48
2023-04-02T21:29:08.637Z,1.42
2023-04-02T21:31:38.222Z,1.39
2023-04-02T21:34:05.963Z,1.37
2023-04-02T21:36:36.066Z,1.35
2023-04-02T21:39:06.514Z,1.33
2023-04-02T21:41:38.984Z,1.30
2023-04-02T21:44:07.250Z,1.28
2023-04-02T21:46:36.525Z,1.21
2023-04-02T21:49:04.132Z,1.26
2023-04-02T21:51:32.866Z,1.25
2023-04-02T21:54:00.367Z,1.22
2023-04-02T21:56:29.541Z,1.21
2023-04-02T21:58:57.134Z,1.19
2023-04-02T22:01:28.928Z,1.15
2023-04-02T22:03:57.291Z,1.16
2023-04-02T22:06:25.798Z,1.15
2023-04-02T22:08:58.266Z,1.13
2023-04-02T22:11:31.922Z,1.09
2023-04-02T22:13:59.290Z,1.06
2023-04-02T22:16:29.311Z,1.04
2023-04-02T22:18:58.432Z,1.03
2023-04-02T22:21:25.860Z,1.01
2023-04-02T22:23:53.590Z,0.97
2023-04-02T22:26:22.789Z,0.95
2023-04-02T22:28:52.302Z,0.92
2023-04-02T22:31:25.124Z,0.90
2023-04-02T22:33:53.778Z,0.85
2023-04-02T22:36:22.238Z,0.82
2023-04-02T22:38:49.654Z,0.79
2023-04-02T22:41:22.458Z,0.83
2023-04-02T22:43:49.398Z,0.81
2023-04-02T22:46:17.438Z,0.79
2023-04-02T22:48:45.225Z,0.76
2023-04-02T22:51:13.658Z,0.75
2023-04-02T22:53:40.746Z,0.71
2023-04-02T22:56:10.780Z,0.71
2023-04-02T22:58:38.147Z,0.67
2023-04-02T23:01:06.654Z,0.64
2023-04-02T23:03:33.338Z,0.62
2023-04-02T23:06:01.881Z,0.59
2023-04-02T23:08:28.580Z,0.55
2023-04-02T23:11:04.400Z,0.55
2023-04-02T23:13:31.246Z,0.53
2023-04-02T23:15:58.027Z,0.50
2023-04-02T23:18:24.717Z,0.49
2023-04-02T23:20:51.335Z,0.47
2023-04-02T23:23:18.004Z,0.46
2023-04-02T23:25:44.687Z,0.44
2023-04-02T23:28:13.413Z,0.42
2023-04-02T23:30:43.995Z,0.37
2023-04-02T23:33:10.660Z,0.36
2023-04-02T23:35:37.371Z,0.33
2023-04-02T23:38:04.056Z,0.30
2023-04-02T23:40:30.757Z,0.28
2023-04-02T23:42:57.366Z,0.25
2023-04-02T23:45:24.034Z,0.22
2023-04-02T23:47:50.726Z,0.19
2023-04-02T23:50:17.489Z,0.17
2023-04-02T23:52:44.106Z,0.15
2023-04-02T23:55:12.112Z,0.12
2023-04-02T23:57:38.760Z,0.09
